createdAt,value
2022-07-29T00:01:04.212Z,99507.97
2022-07-29T00:03:30.993Z,99505.69
2022-07-29T00:05:57.484Z,99507.59
2022-07-29T00:08:23.910Z,99507.22
2022-07-29T00:10:51.735Z,99523.56
2022-07-29T00:13:18.179Z,99524.63
2022-07-29T00:15:58.405Z,99514.81
2022-07-29T00:18:31.033Z,99496.88
2022-07-29T00:20:57.632Z,99478.94
2022-07-29T00:23:24.023Z,99487.63
2022-07-29T00:25:50.450Z,99485.94
2022-07-29T00:28:16.850Z,99506.13
2022-07-29T00:30:44.271Z,99503.81
2022-07-29T00:33:10.994Z,99507.50
2022-07-29T00:35:46.895Z,99514.03
2022-07-29T00:38:15.490Z,99519.22
2022-07-29T00:40:43.948Z,99508.00
2022-07-29T00:43:11.775Z,99515.34
2022-07-29T00:45:38.428Z,99503.69
2022-07-29T00:48:05.766Z,99507.09
2022-07-29T00:50:33.364Z,99495.66
2022-07-29T00:53:00.169Z,99495.66
2022-07-29T00:55:26.651Z,99486.97
2022-07-29T00:57:53.717Z,99486.31
2022-07-29T01:00:23.297Z,99478.94
2022-07-29T01:02:50.029Z,99469.13
2022-07-29T01:05:19.321Z,99464.88
2022-07-29T01:07:47.499Z,99474.47
2022-07-29T01:10:15.555Z,99453.25
2022-07-29T01:12:44.339Z,99458.72
2022-07-29T01:15:11.172Z,99457.94
2022-07-29T01:17:57.784Z,99462.59
2022-07-29T01:21:01.644Z,99463.00
2022-07-29T01:23:53.079Z,99450.75
2022-07-29T01:26:32.591Z,99448.25
2022-07-29T01:29:13.566Z,99446.09
2022-07-29T01:31:59.021Z,99439.44
2022-07-29T01:34:36.333Z,99435.50
2022-07-29T01:37:22.181Z,99435.72
2022-07-29T01:39:50.954Z,99427.19
2022-07-29T01:42:42.947Z,99436.59
2022-07-29T01:45:16.561Z,99429.69
2022-07-29T01:47:47.532Z,99430.03
2022-07-29T01:50:18.386Z,99411.84
2022-07-29T01:52:50.457Z,99412.38
2022-07-29T01:55:20.995Z,99407.63
2022-07-29T01:57:48.999Z,99412.16
2022-07-29T02:00:16.877Z,99406.38
2022-07-29T02:02:45.114Z,99416.22
2022-07-29T02:05:15.042Z,99414.28
2022-07-29T02:07:43.808Z,99406.97
2022-07-29T02:10:13.152Z,99405.13
2022-07-29T02:12:41.603Z,99411.03
2022-07-29T02:15:08.926Z,99411.19
2022-07-29T02:18:00.771Z,99408.69
2022-07-29T02:20:28.713Z,99414.41
2022-07-29T02:22:56.562Z,99408.47
2022-07-29T02:25:25.237Z,99405.63
2022-07-29T02:28:05.575Z,99408.81
2022-07-29T02:30:33.555Z,99413.50
2022-07-29T02:33:01.315Z,99405.00
2022-07-29T02:35:28.206Z,99392.44
2022-07-29T02:38:22.402Z,99409.34
2022-07-29T02:40:51.409Z,99403.56
2022-07-29T02:43:20.057Z,99406.91
2022-07-29T02:45:52.089Z,99400.22
2022-07-29T02:48:22.639Z,99390.84
2022-07-29T02:51:00.601Z,99402.28
2022-07-29T02:53:27.937Z,99404.81
2022-07-29T02:56:01.458Z,99409.75
2022-07-29T02:58:30.877Z,99409.31
2022-07-29T03:01:22.540Z,99412.03
2022-07-29T03:03:51.771Z,99407.69
2022-07-29T03:06:28.297Z,99413.66
2022-07-29T03:09:09.134Z,99406.03
2022-07-29T03:11:46.091Z,99403.06
2022-07-29T03:14:17.614Z,99405.06
2022-07-29T03:16:44.702Z,99404.41
2022-07-29T03:19:11.619Z,99409.56
2022-07-29T03:21:38.014Z,99408.75
2022-07-29T03:24:09.768Z,99400.78
2022-07-29T03:26:36.890Z,99402.41
2022-07-29T03:29:03.339Z,99400.78
2022-07-29T03:31:29.833Z,99400.78
2022-07-29T03:33:56.311Z,99396.44
2022-07-29T03:36:22.731Z,99396.78
2022-07-29T03:38:50.163Z,99393.44
2022-07-29T03:41:19.087Z,99401.41
2022-07-29T03:43:52.588Z,99404.75
2022-07-29T03:46:23.523Z,99403.75
2022-07-29T03:48:53.831Z,99401.97
2022-07-29T03:51:33.852Z,99397.78
2022-07-29T03:54:06.387Z,99403.16
2022-07-29T03:56:40.492Z,99400.16
2022-07-29T03:59:08.108Z,99399.31
2022-07-29T04:01:35.708Z,99406.19
2022-07-29T04:04:02.866Z,99409.16
2022-07-29T04:06:29.382Z,99410.50
2022-07-29T04:08:55.799Z,99412.84
2022-07-29T04:11:22.239Z,99409.78
2022-07-29T04:13:48.666Z,99409.63
2022-07-29T04:16:15.169Z,99416.47
2022-07-29T04:18:41.687Z,99419.81
2022-07-29T04:21:08.087Z,99420.00
2022-07-29T04:23:34.574Z,99416.81
2022-07-29T04:26:02.008Z,99417.81
2022-07-29T04:28:28.397Z,99417.84
2022-07-29T04:30:54.941Z,99423.00
2022-07-29T04:33:21.381Z,99417.34
2022-07-29T04:35:52.698Z,99424.84
2022-07-29T04:38:22.112Z,99419.22
2022-07-29T04:40:49.609Z,99433.06
2022-07-29T04:43:16.625Z,99428.88
2022-07-29T04:45:49.182Z,99435.53
2022-07-29T04:48:15.575Z,99430.19
2022-07-29T04:50:41.990Z,99424.03
2022-07-29T04:53:08.830Z,99432.53
2022-07-29T04:55:35.337Z,99432.53
2022-07-29T04:58:05.390Z,99431.00
2022-07-29T05:00:33.254Z,99434.84
2022-07-29T05:03:00.536Z,99441.06
2022-07-29T05:05:27.012Z,99435.19
2022-07-29T05:07:53.582Z,99444.69
2022-07-29T05:10:19.961Z,99447.69
2022-07-29T05:12:46.381Z,99442.22
2022-07-29T05:15:13.680Z,99446.72
2022-07-29T05:17:40.105Z,99441.88
2022-07-29T05:20:07.266Z,99445.38
2022-07-29T05:22:33.846Z,99435.16
2022-07-29T05:25:02.276Z,99443.38
2022-07-29T05:27:32.091Z,99444.88
2022-07-29T05:29:58.666Z,99440.84
2022-07-29T05:32:25.297Z,99438.84
2022-07-29T05:34:51.958Z,99446.00
2022-07-29T05:37:20.219Z,99453.13
2022-07-29T05:39:50.543Z,99447.78
2022-07-29T05:42:22.590Z,99450.16
2022-07-29T05:44:49.107Z,99458.97
2022-07-29T05:47:15.546Z,99459.97
2022-07-29T05:49:41.968Z,99460.09
2022-07-29T05:52:08.393Z,99456.56
2022-07-29T05:54:35.702Z,99460.38
2022-07-29T05:57:02.239Z,99452.22
2022-07-29T05:59:30.659Z,99463.34
2022-07-29T06:01:58.326Z,99461.84
2022-07-29T06:04:25.162Z,99465.78
2022-07-29T06:06:51.623Z,99461.56
2022-07-29T06:09:18.056Z,99467.84
2022-07-29T06:11:44.435Z,99473.16
2022-07-29T06:14:10.865Z,99477.69
2022-07-29T06:16:37.374Z,99469.13
2022-07-29T06:19:03.871Z,99478.66
2022-07-29T06:21:30.275Z,99481.31
2022-07-29T06:23:56.711Z,99483.28
2022-07-29T06:26:30.675Z,99480.97
2022-07-29T06:28:58.082Z,99484.91
2022-07-29T06:31:24.558Z,99474.00
2022-07-29T06:33:51.081Z,99490.06
2022-07-29T06:36:17.653Z,99488.59
2022-07-29T06:38:49.465Z,99483.91
2022-07-29T06:41:18.430Z,99488.16
2022-07-29T06:43:51.706Z,99485.25
2022-07-29T06:46:21.717Z,99486.19
2022-07-29T06:48:51.343Z,99473.81
2022-07-29T06:51:22.521Z,99490.19
2022-07-29T06:53:59.397Z,99483.72
2022-07-29T06:56:29.095Z,99489.41
2022-07-29T06:58:55.563Z,99488.28
2022-07-29T07:01:22.138Z,99488.28
2022-07-29T07:03:49.060Z,99487.22
2022-07-29T07:06:15.644Z,99486.22
2022-07-29T07:08:42.042Z,99486.97
2022-07-29T07:11:09.046Z,99482.06
2022-07-29T07:13:36.645Z,99498.25
2022-07-29T07:16:03.972Z,99497.97
2022-07-29T07:18:30.555Z,99499.75
2022-07-29T07:20:57.803Z,99496.69
2022-07-29T07:23:24.588Z,99502.44
2022-07-29T07:25:51.151Z,99492.53
2022-07-29T07:28:17.579Z,99495.66
2022-07-29T07:30:44.474Z,99491.25
2022-07-29T07:33:11.543Z,99490.78
2022-07-29T07:35:37.955Z,99494.66
2022-07-29T07:38:04.449Z,99486.13
2022-07-29T07:40:30.916Z,99495.34
2022-07-29T07:42:57.632Z,99503.81
2022-07-29T07:45:24.636Z,99482.78
2022-07-29T07:47:51.067Z,99493.59
2022-07-29T07:50:19.189Z,99494.03
2022-07-29T07:52:55.813Z,99494.88
2022-07-29T07:55:22.397Z,99484.97
2022-07-29T07:57:48.805Z,99495.97
2022-07-29T08:00:16.800Z,99487.28
2022-07-29T08:02:44.020Z,99481.59
2022-07-29T08:05:12.721Z,99490.09
2022-07-29T08:07:39.618Z,99510.81
2022-07-29T08:10:06.551Z,99504.94
2022-07-29T08:12:33.054Z,99504.53
2022-07-29T08:14:59.595Z,99500.66
2022-07-29T08:17:26.218Z,99500.47
2022-07-29T08:19:52.618Z,99507.28
2022-07-29T08:22:19.094Z,99500.09
2022-07-29T08:24:47.165Z,99510.69
2022-07-29T08:27:40.793Z,99499.19
2022-07-29T08:30:01.234Z,99500.44
2022-07-29T08:32:51.982Z,99498.91
2022-07-29T08:35:15.734Z,99503.56
2022-07-29T08:37:42.825Z,99500.94
2022-07-29T08:40:09.641Z,99507.44
2022-07-29T08:42:36.505Z,99512.00
2022-07-29T08:45:04.401Z,99506.25
2022-07-29T08:47:30.876Z,99500.88
2022-07-29T08:49:57.345Z,99505.03
2022-07-29T08:52:29.767Z,99500.47
2022-07-29T08:54:56.382Z,99504.28
2022-07-29T08:57:23.329Z,99508.25
2022-07-29T08:59:53.338Z,99506.66
2022-07-29T09:02:21.506Z,99510.84
2022-07-29T09:04:48.603Z,99497.66
2022-07-29T09:07:19.803Z,99498.28
2022-07-29T09:09:46.574Z,99495.41
2022-07-29T09:12:13.548Z,99493.53
2022-07-29T09:14:56.050Z,99491.03
2022-07-29T09:17:41.377Z,99496.03
2022-07-29T09:20:19.230Z,99496.03
2022-07-29T09:22:49.994Z,99495.84
2022-07-29T09:25:33.604Z,99487.13
2022-07-29T09:28:17.349Z,99485.94
2022-07-29T09:30:59.116Z,99477.31
2022-07-29T09:33:33.886Z,99479.38
2022-07-29T09:36:08.813Z,99481.84
2022-07-29T09:38:36.285Z,99486.06
2022-07-29T09:41:06.233Z,99470.72
2022-07-29T09:43:33.842Z,99467.81
2022-07-29T09:46:13.716Z,99471.97
2022-07-29T09:48:40.494Z,99469.47
2022-07-29T09:51:20.597Z,99471.13
2022-07-29T09:53:47.963Z,99466.78
2022-07-29T09:56:15.177Z,99464.06
2022-07-29T09:58:41.581Z,99470.69
2022-07-29T10:01:08.019Z,99466.09
2022-07-29T10:03:51.687Z,99453.69
2022-07-29T10:06:18.184Z,99467.38
2022-07-29T10:08:44.616Z,99462.38
2022-07-29T10:11:13.804Z,99466.31
2022-07-29T10:13:41.463Z,99464.50
2022-07-29T10:16:08.388Z,99462.81
2022-07-29T10:18:34.964Z,99465.28
2022-07-29T10:21:02.174Z,99449.91
2022-07-29T10:23:30.216Z,99455.91
2022-07-29T10:26:13.469Z,99453.78
2022-07-29T10:28:39.981Z,99453.09
2022-07-29T10:31:08.949Z,99451.75
2022-07-29T10:34:03.867Z,99453.00
2022-07-29T10:36:53.911Z,99452.09
2022-07-29T10:39:44.765Z,99446.94
2022-07-29T10:45:12.151Z,99446.31
2022-07-29T10:47:38.766Z,99445.94
2022-07-29T10:50:07.069Z,99442.75
2022-07-29T10:52:53.603Z,99446.59
2022-07-29T10:55:43.806Z,99442.94
2022-07-29T10:58:17.994Z,99441.06
2022-07-29T11:00:50.357Z,99439.78
2022-07-29T11:03:41.636Z,99443.84
2022-07-29T11:06:17.066Z,99426.22
2022-07-29T11:08:44.652Z,99434.63
2022-07-29T11:11:29.555Z,99431.19
2022-07-29T11:13:57.012Z,99418.19
2022-07-29T11:16:25.087Z,99429.50
2022-07-29T11:19:14.147Z,99427.00
2022-07-29T11:21:54.114Z,99412.72
2022-07-29T11:24:31.854Z,99418.38
2022-07-29T11:27:18.417Z,99413.84
2022-07-29T11:29:55.535Z,99411.97
2022-07-29T11:32:24.188Z,99427.31
2022-07-29T11:35:37.065Z,99414.03
2022-07-29T11:38:23.482Z,99411.94
2022-07-29T11:41:18.875Z,99418.47
2022-07-29T11:43:50.876Z,99409.59
2022-07-29T11:46:39.138Z,99408.28
2022-07-29T11:49:09.225Z,99414.91
2022-07-29T11:51:37.984Z,99411.53
2022-07-29T11:54:27.624Z,99411.34
2022-07-29T11:56:54.891Z,99408.47
2022-07-29T11:59:22.294Z,99398.38
2022-07-29T12:02:18.039Z,99400.56
2022-07-29T12:04:55.261Z,99393.19
2022-07-29T12:07:32.669Z,99394.28
2022-07-29T12:10:02.811Z,99403.13
2022-07-29T12:12:29.388Z,99395.56
2022-07-29T12:14:56.347Z,99394.53
2022-07-29T12:17:41.658Z,99395.34
2022-07-29T12:20:08.894Z,99394.44
2022-07-29T12:22:41.279Z,99391.81
2022-07-29T12:25:32.375Z,99385.81
2022-07-29T12:28:06.179Z,99381.88
2022-07-29T12:30:39.904Z,99378.03
2022-07-29T12:33:20.286Z,99374.03
2022-07-29T12:36:03.446Z,99368.84
2022-07-29T12:38:33.925Z,99366.25
2022-07-29T12:41:00.498Z,99357.72
2022-07-29T12:43:27.500Z,99354.88
2022-07-29T12:45:56.321Z,99360.31
2022-07-29T12:48:41.441Z,99360.38
2022-07-29T12:51:09.707Z,99355.53
2022-07-29T12:53:36.864Z,99355.44
2022-07-29T12:56:15.509Z,99340.59
2022-07-29T12:58:51.582Z,99337.53
2022-07-29T13:01:20.273Z,99336.09
2022-07-29T13:04:05.063Z,99341.38
2022-07-29T13:06:45.739Z,99346.00
2022-07-29T13:09:19.018Z,99345.28
2022-07-29T13:11:50.625Z,99348.53
2022-07-29T13:14:35.927Z,99355.34
2022-07-29T13:17:08.536Z,99355.13
2022-07-29T13:19:41.471Z,99351.72
2022-07-29T13:22:09.308Z,99345.97
2022-07-29T13:24:47.137Z,99351.72
2022-07-29T13:27:16.265Z,99362.94
2022-07-29T13:29:42.740Z,99366.84
2022-07-29T13:32:09.410Z,99385.91
2022-07-29T13:34:35.817Z,99412.63
2022-07-29T13:37:02.210Z,99406.28
2022-07-29T13:39:28.681Z,99427.75
2022-07-29T13:41:56.328Z,99421.91
2022-07-29T13:44:24.296Z,99423.09
2022-07-29T13:46:50.950Z,99433.78
2022-07-29T13:49:17.418Z,99433.91
2022-07-29T13:51:44.119Z,99431.50
2022-07-29T13:54:10.580Z,99437.88
2022-07-29T13:56:36.974Z,99432.22
2022-07-29T13:59:03.401Z,99439.13
2022-07-29T14:01:31.284Z,99443.16
2022-07-29T14:03:57.897Z,99427.03
2022-07-29T14:06:24.616Z,99431.72
2022-07-29T14:08:52.865Z,99436.75
2022-07-29T14:11:19.283Z,99431.53
2022-07-29T14:13:45.696Z,99432.66
2022-07-29T14:16:12.402Z,99440.38
2022-07-29T14:18:38.911Z,99448.91
2022-07-29T14:21:05.381Z,99446.34
2022-07-29T14:23:32.284Z,99433.84
2022-07-29T14:25:58.794Z,99429.47
2022-07-29T14:28:25.498Z,99421.59
2022-07-29T14:30:52.074Z,99431.16
2022-07-29T14:33:18.463Z,99430.38
2022-07-29T14:35:45.395Z,99426.19
2022-07-29T14:38:12.139Z,99422.84
2022-07-29T14:40:38.934Z,99421.38
2022-07-29T14:43:05.398Z,99418.84
2022-07-29T14:45:32.391Z,99417.97
2022-07-29T14:47:58.867Z,99424.16
2022-07-29T14:50:32.047Z,99410.25
2022-07-29T14:52:59.360Z,99408.56
2022-07-29T14:55:25.991Z,99405.22
2022-07-29T14:57:55.484Z,99398.97
2022-07-29T15:00:27.379Z,99393.56
2022-07-29T15:03:02.012Z,99392.13
2022-07-29T15:05:29.827Z,99385.25
2022-07-29T15:07:56.322Z,99381.94
2022-07-29T15:10:22.728Z,99374.88
2022-07-29T15:12:51.265Z,99378.00
2022-07-29T15:15:17.706Z,99375.09
2022-07-29T15:17:44.115Z,99371.16
2022-07-29T15:20:12.056Z,99377.38
2022-07-29T15:22:39.053Z,99373.41
2022-07-29T15:25:06.440Z,99378.63
2022-07-29T15:27:32.864Z,99373.41
2022-07-29T15:29:59.298Z,99374.47
2022-07-29T15:32:25.782Z,99370.50
2022-07-29T15:34:52.166Z,99376.03
2022-07-29T15:37:18.602Z,99378.09
2022-07-29T15:39:45.006Z,99371.81
2022-07-29T15:42:11.407Z,99368.44
2022-07-29T15:44:37.783Z,99372.38
2022-07-29T15:47:04.391Z,99379.19
2022-07-29T15:49:48.056Z,99376.69
2022-07-29T15:52:25.896Z,99380.00
2022-07-29T15:54:57.512Z,99369.38
2022-07-29T15:57:25.059Z,99374.22
2022-07-29T15:59:51.939Z,99371.72
2022-07-29T16:02:18.397Z,99368.63
2022-07-29T16:04:45.008Z,99363.88
2022-07-29T16:07:11.614Z,99363.28
2022-07-29T16:09:38.177Z,99368.91
2022-07-29T16:12:14.835Z,99377.44
2022-07-29T16:14:45.163Z,99370.00
2022-07-29T16:17:14.427Z,99376.88
2022-07-29T16:19:42.010Z,99384.81
2022-07-29T16:22:08.438Z,99381.50
2022-07-29T16:24:34.883Z,99384.41
2022-07-29T16:27:01.850Z,99387.34
2022-07-29T16:29:29.015Z,99380.50
2022-07-29T16:31:55.582Z,99386.09
2022-07-29T16:34:22.008Z,99382.38
2022-07-29T16:36:48.416Z,99387.41
2022-07-29T16:39:14.865Z,99385.13
2022-07-29T16:41:42.207Z,99388.25
2022-07-29T16:44:08.628Z,99389.53
2022-07-29T16:46:37.405Z,99397.00
2022-07-29T16:49:05.654Z,99396.63
2022-07-29T16:51:32.582Z,99399.13
2022-07-29T16:53:59.084Z,99404.75
2022-07-29T16:56:25.612Z,99409.97
2022-07-29T16:58:52.041Z,99415.00
2022-07-29T17:01:18.597Z,99421.22
2022-07-29T17:04:06.250Z,99413.22
2022-07-29T17:06:38.496Z,99421.34
2022-07-29T17:09:06.816Z,99428.84
2022-07-29T17:11:52.453Z,99439.19
2022-07-29T17:14:25.365Z,99436.09
2022-07-29T17:17:00.534Z,99453.06
2022-07-29T17:19:31.571Z,99453.22
2022-07-29T17:22:05.055Z,99440.78
2022-07-29T17:24:35.704Z,99417.97
2022-07-29T17:27:02.149Z,99417.59
2022-07-29T17:29:28.596Z,99420.28
2022-07-29T17:31:55.266Z,99425.69
2022-07-29T17:34:21.665Z,99430.44
2022-07-29T17:36:48.230Z,99425.84
2022-07-29T17:39:14.666Z,99438.03
2022-07-29T17:41:41.206Z,99448.59
2022-07-29T17:44:09.291Z,99447.75
2022-07-29T17:46:35.896Z,99455.22
2022-07-29T17:49:02.701Z,99460.97
2022-07-29T17:51:29.165Z,99471.50
2022-07-29T17:53:55.704Z,99465.28
2022-07-29T17:56:22.441Z,99471.84
2022-07-29T17:58:48.901Z,99470.00
2022-07-29T18:01:16.070Z,99472.44
2022-07-29T18:03:43.132Z,99478.34
2022-07-29T18:06:10.505Z,99470.28
2022-07-29T18:08:37.676Z,99480.41
2022-07-29T18:11:04.109Z,99483.22
2022-07-29T18:13:32.287Z,99483.44
2022-07-29T18:16:00.609Z,99480.50
2022-07-29T18:18:27.779Z,99481.09
2022-07-29T18:20:54.496Z,99482.50
2022-07-29T18:23:21.185Z,99493.06
2022-07-29T18:25:47.599Z,99494.28
2022-07-29T18:28:14.100Z,99495.06
2022-07-29T18:30:40.572Z,99506.63
2022-07-29T18:33:21.752Z,99498.97
2022-07-29T18:35:50.438Z,99509.06
2022-07-29T18:38:17.393Z,99514.44
2022-07-29T18:40:45.438Z,99514.88
2022-07-29T18:43:12.541Z,99515.41
2022-07-29T18:45:39.568Z,99517.03
2022-07-29T18:48:08.357Z,99513.31
2022-07-29T18:50:39.523Z,99512.22
2022-07-29T18:53:06.046Z,99507.66
2022-07-29T18:55:32.762Z,99514.28
2022-07-29T18:57:59.344Z,99514.66
2022-07-29T19:00:26.463Z,99527.47
2022-07-29T19:02:53.369Z,99521.66
2022-07-29T19:05:20.408Z,99536.09
2022-07-29T19:07:46.870Z,99537.13
2022-07-29T19:10:13.593Z,99542.50
2022-07-29T19:12:40.173Z,99548.81
2022-07-29T19:15:07.988Z,99549.00
2022-07-29T19:17:34.492Z,99552.53
2022-07-29T19:20:02.037Z,99547.72
2022-07-29T19:22:28.504Z,99552.06
2022-07-29T19:24:54.894Z,99557.75
2022-07-29T19:27:21.327Z,99555.34
2022-07-29T19:29:48.321Z,99562.59
2022-07-29T19:32:24.873Z,99570.81
2022-07-29T19:35:10.419Z,99564.44
2022-07-29T19:37:37.326Z,99575.56
2022-07-29T19:40:05.395Z,99568.72
2022-07-29T19:42:31.893Z,99566.41
2022-07-29T19:44:58.326Z,99589.19
2022-07-29T19:47:25.128Z,99583.38
2022-07-29T19:49:51.771Z,99592.06
2022-07-29T19:52:18.255Z,99594.69
2022-07-29T19:54:44.761Z,99597.75
2022-07-29T19:57:11.301Z,99600.59
2022-07-29T19:59:38.229Z,99602.19
2022-07-29T20:02:04.967Z,99605.69
2022-07-29T20:04:31.564Z,99604.72
2022-07-29T20:07:01.353Z,99604.66
2022-07-29T20:09:28.304Z,99609.09
2022-07-29T20:11:55.033Z,99605.50
2022-07-29T20:14:21.860Z,99607.72
2022-07-29T20:16:49.026Z,99607.28
2022-07-29T20:19:15.554Z,99616.72
2022-07-29T20:21:41.942Z,99612.78
2022-07-29T20:24:08.727Z,99618.59
2022-07-29T20:26:35.411Z,99624.16
2022-07-29T20:29:05.013Z,99629.81
2022-07-29T20:31:34.839Z,99626.13
2022-07-29T20:34:01.916Z,99633.16
2022-07-29T20:36:28.933Z,99630.00
2022-07-29T20:38:56.148Z,99635.75
2022-07-29T20:41:22.895Z,99646.50
2022-07-29T20:43:52.702Z,99642.50
2022-07-29T20:46:19.181Z,99651.47
2022-07-29T20:48:46.820Z,99644.06
2022-07-29T20:51:14.120Z,99643.06
2022-07-29T20:53:41.402Z,99645.50
2022-07-29T20:56:08.001Z,99658.53
2022-07-29T20:58:36.018Z,99657.91
2022-07-29T21:01:02.979Z,99668.06
2022-07-29T21:03:29.498Z,99661.69
2022-07-29T21:05:56.364Z,99664.91
2022-07-29T21:08:23.015Z,99675.66
2022-07-29T21:10:49.417Z,99667.13
2022-07-29T21:13:16.574Z,99674.09
2022-07-29T21:15:46.075Z,99669.66
2022-07-29T21:18:27.939Z,99670.69
2022-07-29T21:20:55.022Z,99681.59
2022-07-29T21:23:21.626Z,99663.63
2022-07-29T21:25:48.070Z,99663.34
2022-07-29T21:28:26.474Z,99665.28
2022-07-29T21:30:54.777Z,99663.38
2022-07-29T21:33:21.431Z,99656.50
2022-07-29T21:38:35.099Z,99658.66
2022-07-29T21:41:02.273Z,99658.56
2022-07-29T21:43:28.864Z,99657.72
2022-07-29T21:45:56.148Z,99655.69
2022-07-29T21:48:23.978Z,99657.16
2022-07-29T21:50:51.028Z,99658.56
2022-07-29T21:53:18.473Z,99660.84
2022-07-29T21:55:50.528Z,99662.31
2022-07-29T21:58:17.684Z,99656.22
2022-07-29T22:00:44.979Z,99660.72
2022-07-29T22:03:11.383Z,99666.19
2022-07-29T22:05:37.830Z,99664.97
2022-07-29T22:08:04.746Z,99665.88
2022-07-29T22:10:31.428Z,99659.09
2022-07-29T22:12:59.093Z,99658.66
2022-07-29T22:15:25.945Z,99664.75
2022-07-29T22:17:53.071Z,99669.47
2022-07-29T22:20:20.082Z,99670.28
2022-07-29T22:22:46.902Z,99681.75
2022-07-29T22:25:13.399Z,99673.22
2022-07-29T22:27:40.145Z,99676.97
2022-07-29T22:30:07.927Z,99681.03
2022-07-29T22:32:34.547Z,99680.31
2022-07-29T22:35:00.966Z,99677.34
2022-07-29T22:37:27.408Z,99678.41
2022-07-29T22:39:53.861Z,99677.94
2022-07-29T22:42:21.011Z,99679.53
2022-07-29T22:44:47.431Z,99690.88
2022-07-29T22:47:13.852Z,99688.88
2022-07-29T22:49:40.245Z,99684.63
2022-07-29T22:52:06.669Z,99684.75
2022-07-29T22:54:33.070Z,99689.25
2022-07-29T22:57:01.018Z,99688.13
2022-07-29T22:59:27.575Z,99689.13
2022-07-29T23:01:54.398Z,99694.50
2022-07-29T23:04:23.612Z,99695.50
2022-07-29T23:06:51.093Z,99696.91
2022-07-29T23:09:17.576Z,99693.72
2022-07-29T23:11:44.059Z,99697.91
2022-07-29T23:14:10.446Z,99703.84
2022-07-29T23:16:37.111Z,99700.16
2022-07-29T23:19:03.590Z,99701.50
2022-07-29T23:21:30.032Z,99693.69
2022-07-29T23:23:56.443Z,99703.38
2022-07-29T23:26:22.841Z,99700.81
2022-07-29T23:28:49.256Z,99709.66
2022-07-29T23:31:15.900Z,99700.94
2022-07-29T23:33:42.332Z,99700.75
2022-07-29T23:36:08.749Z,99693.06
2022-07-29T23:38:35.181Z,99692.97
2022-07-29T23:41:02.243Z,99687.28
2022-07-29T23:43:28.874Z,99688.34
2022-07-29T23:45:55.971Z,99698.72
2022-07-29T23:48:24.787Z,99685.25
2022-07-29T23:50:51.202Z,99693.09
2022-07-29T23:53:17.687Z,99689.25
2022-07-29T23:55:44.155Z,99690.97
2022-07-29T23:58:10.744Z,99686.91
